Time;durP1;ratioP1;P1;durP2;ratioP2;P2;SDS_P1;SDS_P2;PMS_P1;PMS_P2;Temp;Humidity;BMP_temperature;BMP_pressure;BME280_temperature;BME280_humidity;BME280_pressure;Samples;Min_cycle;Max_cycle;Signal;HPM_P1;HPM_P2
2021/12/16 00:02:38;;;;;;;118.95;62.58;;;;;;;3.32;81.00;98467.08;1718407;83;25797;-80
2021/12/16 00:05:21;;;;;;;112.20;58.87;;;;;;;3.27;81.00;98469.30;1715900;83;25714;-80
2021/12/16 00:07:36;;;;;;;118.53;57.05;;;;;;;3.28;81.14;98464.81;1714828;83;25928;-80
2021/12/16 00:10:09;;;;;;;125.45;59.90;;;;;;;3.30;81.25;98466.37;1717685;83;25701;-80
2021/12/16 00:32:17;;;;;;;110.92;57.33;;;;;;;3.28;81.21;98449.65;1699634;83;25715;-80
2021/12/16 00:34:31;;;;;;;96.08;51.30;;;;;;;3.24;81.23;98446.44;1699833;83;25803;-80
2021/12/16 00:36:59;;;;;;;94.15;49.13;;;;;;;3.25;81.32;98443.28;1699771;83;25837;-79
2021/12/16 00:39:33;;;;;;;90.40;47.65;;;;;;;3.28;81.37;98442.13;1699765;83;28460;-79
2021/12/16 00:42:08;;;;;;;91.78;50.52;;;;;;;3.29;81.30;98439.81;1699690;83;25780;-80
2021/12/16 00:49:48;;;;;;;83.60;45.43;;;;;;;3.29;81.28;98439.33;1699794;83;25641;-79
2021/12/16 00:57:42;;;;;;;84.22;46.77;;;;;;;3.35;81.34;98439.27;1671598;85;25858;-79
2021/12/16 01:00:13;;;;;;;74.97;44.83;;;;;;;3.31;81.31;98452.53;1694490;82;26598;-79
2021/12/16 01:35:54;;;;;;;70.20;37.60;;;;;;;3.37;81.54;98432.81;1717845;83;25907;-79
2021/12/16 01:46:58;;;;;;;68.28;38.30;;;;;;;3.36;81.33;98422.28;1717962;83;28266;-80
2021/12/16 01:52:20;;;;;;;61.02;33.88;;;;;;;3.34;81.34;98423.75;1718134;83;25711;-80
2021/12/16 01:54:55;;;;;;;59.83;33.25;;;;;;;3.29;81.37;98421.14;1714403;83;25923;-80
2021/12/16 01:57:35;;;;;;;56.65;33.38;;;;;;;3.25;81.40;98424.11;1716955;83;26360;-79
2021/12/16 02:00:03;;;;;;;;;;;;;;;3.21;81.48;98417.36;1720760;83;27546;-79
2021/12/16 02:02:49;;;;;;;56.55;33.02;;;;;;;3.23;81.66;98407.39;1717780;83;26148;-80
2021/12/16 02:10:40;;;;;;;60.40;34.48;;;;;;;3.23;81.65;98390.05;1718574;83;25810;-80
2021/12/16 02:30:10;;;;;;;61.28;34.13;;;;;;;3.27;81.60;98379.91;1718493;83;26082;-80
2021/12/16 02:32:46;;;;;;;61.10;33.80;;;;;;;3.25;81.64;98372.08;1715139;83;25786;-80
2021/12/16 02:37:31;;;;;;;78.55;41.42;;;;;;;3.26;81.61;98366.22;1718850;83;25856;-80
2021/12/16 02:39:56;;;;;;;105.60;50.12;;;;;;;3.25;81.63;98360.07;1718435;83;26982;-80
2021/12/16 02:42:38;;;;;;;117.55;57.65;;;;;;;3.26;81.66;98361.72;1721127;82;25791;-79
2021/12/16 02:50:24;;;;;;;100.12;48.87;;;;;;;3.29;81.77;98351.76;1718633;83;25810;-80
2021/12/16 02:52:52;;;;;;;99.97;48.95;;;;;;;3.32;81.83;98350.98;1718803;83;27467;-79
2021/12/16 02:55:21;;;;;;;111.72;51.53;;;;;;;3.37;81.82;98349.23;1718736;83;25768;-80
2021/12/16 02:57:59;;;;;;;112.40;55.05;;;;;;;3.38;81.69;98353.59;1718593;83;25812;-79
2021/12/16 03:00:18;;;;;;;98.12;49.58;;;;;;;3.35;81.63;98354.71;1716382;83;25796;-79
2021/12/16 03:02:50;;;;;;;89.47;46.50;;;;;;;3.35;81.62;98351.20;1718865;83;25763;-80
2021/12/16 03:05:19;;;;;;;85.83;45.15;;;;;;;3.38;81.72;98353.06;1718995;83;33136;-80
2021/12/16 03:07:46;;;;;;;81.47;43.95;;;;;;;3.40;81.66;98351.59;1718953;83;25678;-80
2021/12/16 03:13:04;;;;;;;85.42;43.63;;;;;;;3.44;81.71;98339.66;1718697;83;26401;-80
2021/12/16 03:15:57;;;;;;;83.90;43.08;;;;;;;3.45;81.58;98348.86;1718636;83;25671;-80
2021/12/16 03:21:05;;;;;;;78.50;39.05;;;;;;;3.41;81.52;98353.28;1721229;82;25832;-80
2021/12/16 03:23:45;;;;;;;72.15;37.75;;;;;;;3.40;81.54;98352.44;1714496;83;25784;-80
2021/12/16 03:26:39;;;;;;;63.92;33.45;;;;;;;3.42;81.58;98352.30;1697800;83;35218;-79
2021/12/16 03:29:04;;;;;;;70.57;35.70;;;;;;;3.44;81.59;98350.33;1696330;84;25761;-80
2021/12/16 03:36:50;;;;;;;70.15;34.67;;;;;;;3.48;81.55;98359.75;1699870;83;25776;-80
2021/12/16 03:39:17;;;;;;;58.35;31.52;;;;;;;3.45;81.46;98357.36;1699739;83;26364;-80
2021/12/16 03:41:44;;;;;;;61.15;32.65;;;;;;;3.43;81.51;98359.33;1699897;83;26417;-80
2021/12/16 03:44:17;;;;;;;55.52;31.23;;;;;;;3.44;81.55;98367.19;1699823;83;27381;-80
2021/12/16 03:46:47;;;;;;;;;;;;;;;3.43;81.48;98361.99;1702445;83;25798;-80
2021/12/16 03:49:21;;;;;;;59.15;31.15;;;;;;;3.42;81.58;98359.81;1699909;83;25754;-80
2021/12/16 03:51:56;;;;;;;54.80;31.12;;;;;;;3.43;81.67;98365.50;1699863;83;26430;-80
2021/12/16 03:54:31;;;;;;;56.08;30.32;;;;;;;3.46;81.68;98367.89;1699905;83;26230;-80
2021/12/16 03:57:01;;;;;;;58.17;30.57;;;;;;;3.46;81.57;98365.72;1699893;84;27412;-80
2021/12/16 03:59:32;;;;;;;54.05;30.17;;;;;;;3.45;81.57;98359.53;1699695;84;25805;-80
2021/12/16 04:02:03;;;;;;;51.23;29.02;;;;;;;3.42;81.51;98355.81;1699804;83;25815;-80
2021/12/16 04:04:31;;;;;;;51.00;28.92;;;;;;;3.43;81.61;98360.17;1699995;84;25758;-80
2021/12/16 04:06:57;;;;;;;51.25;29.23;;;;;;;3.45;81.67;98354.20;1699672;83;25754;-80
2021/12/16 04:09:24;;;;;;;50.08;28.77;;;;;;;3.43;81.60;98354.83;1699852;83;27636;-80
2021/12/16 04:12:07;;;;;;;50.15;28.62;;;;;;;3.38;81.59;98356.27;1699773;83;25860;-80
2021/12/16 04:14:26;;;;;;;51.10;28.10;;;;;;;3.36;81.67;98356.89;1698211;83;25956;-79
2021/12/16 04:16:56;;;;;;;48.68;27.55;;;;;;;3.38;81.76;98353.59;1699785;84;25846;-80
2021/12/16 04:19:27;;;;;;;51.48;28.83;;;;;;;3.41;81.83;98355.95;1699854;83;25837;-80
2021/12/16 04:22:01;;;;;;;44.38;28.32;;;;;;;3.39;81.70;98360.09;1699852;83;27419;-80
2021/12/16 04:24:28;;;;;;;44.13;26.55;;;;;;;3.39;81.69;98369.92;1706889;83;25877;-80
2021/12/16 04:26:57;;;;;;;39.83;26.10;;;;;;;3.38;81.70;98367.75;1718428;83;25744;-80
2021/12/16 04:29:25;;;;;;;47.95;26.97;;;;;;;3.41;81.82;98372.81;1718410;83;26024;-80
2021/12/16 04:31:54;;;;;;;41.10;24.95;;;;;;;3.44;81.78;98375.69;1718520;83;25809;-80
2021/12/16 04:34:22;;;;;;;44.15;26.55;;;;;;;3.41;81.76;98378.64;1718352;83;27404;-80
2021/12/16 04:36:50;;;;;;;44.45;27.07;;;;;;;3.37;81.78;98375.92;1718337;83;25842;-80
2021/12/16 04:39:22;;;;;;;45.03;26.73;;;;;;;3.39;81.98;98372.59;1718363;83;25894;-80
2021/12/16 04:41:50;;;;;;;42.10;24.43;;;;;;;3.42;82.04;98375.83;1692876;83;25832;-80
2021/12/16 04:44:18;;;;;;;40.67;24.20;;;;;;;3.46;82.05;98375.06;1718426;83;25756;-80
2021/12/16 04:46:46;;;;;;;42.48;24.15;;;;;;;3.47;82.06;98372.25;1718410;83;27481;-80
2021/12/16 04:49:15;;;;;;;52.70;30.05;;;;;;;3.47;82.03;98371.41;1718061;83;25842;-80
2021/12/16 04:51:47;;;;;;;53.48;30.23;;;;;;;3.47;82.06;98368.25;1718420;83;26054;-80
2021/12/16 04:54:17;;;;;;;54.10;29.05;;;;;;;3.48;82.09;98363.75;1718472;83;26550;-80
2021/12/16 04:56:46;;;;;;;56.83;30.90;;;;;;;3.50;82.06;98371.13;1718444;83;25864;-79
2021/12/16 04:59:15;;;;;;;50.05;29.48;;;;;;;3.49;82.05;98372.11;1718319;83;27405;-79
2021/12/16 05:01:46;;;;;;;59.55;30.52;;;;;;;3.48;82.04;98374.43;1718281;83;25826;-79
2021/12/16 05:04:13;;;;;;;50.05;29.40;;;;;;;3.48;82.02;98378.44;1718474;83;25652;-80
2021/12/16 05:06:40;;;;;;;50.35;29.50;;;;;;;3.44;82.02;98381.03;1718388;83;25852;-80
2021/12/16 05:09:11;;;;;;;56.92;30.80;;;;;;;3.45;82.12;98386.72;1718534;83;25531;-79
2021/12/16 05:11:37;;;;;;;58.75;30.52;;;;;;;3.47;82.19;98390.09;1718501;83;27349;-79
2021/12/16 05:14:06;;;;;;;61.02;32.50;;;;;;;3.48;82.17;98385.11;1718357;83;25794;-79
2021/12/16 05:16:33;;;;;;;65.22;36.42;;;;;;;3.51;82.17;98386.13;1718120;83;25704;-79
2021/12/16 05:19:00;;;;;;;72.00;37.70;;;;;;;3.54;82.23;98391.19;1718055;83;25790;-80
2021/12/16 05:21:43;;;;;;;65.17;36.70;;;;;;;3.57;82.24;98396.25;1718126;83;25745;-80
2021/12/16 05:24:29;;;;;;;69.80;35.35;;;;;;;3.57;82.16;98389.09;1715232;82;27378;-80
2021/12/16 05:26:30;;;;;;;69.12;36.08;;;;;;;3.57;82.16;98397.09;1713731;83;25841;-80
2021/12/16 05:28:59;;;;;;;64.72;34.88;;;;;;;3.62;82.19;98406.02;1721460;83;25749;-80
2021/12/16 05:31:28;;;;;;;58.73;30.68;;;;;;;3.63;82.14;98403.18;1721555;83;25804;-79
2021/12/16 05:33:57;;;;;;;55.58;31.75;;;;;;;3.63;82.07;98407.19;1721501;83;25749;-80
2021/12/16 05:36:24;;;;;;;54.18;29.05;;;;;;;3.62;82.08;98404.69;1721449;83;28010;-80
2021/12/16 05:38:50;;;;;;;51.63;28.47;;;;;;;3.62;82.13;98406.02;1721307;83;25951;-80
2021/12/16 05:41:21;;;;;;;55.52;31.45;;;;;;;3.63;82.07;98417.02;1721197;83;25725;-80
2021/12/16 05:43:48;;;;;;;61.02;33.02;;;;;;;3.63;82.11;98418.36;1721550;83;25855;-79
2021/12/16 05:46:18;;;;;;;66.20;35.40;;;;;;;3.64;82.08;98414.70;1721511;83;25767;-80
2021/12/16 05:48:48;;;;;;;61.95;34.67;;;;;;;3.63;82.01;98410.34;1721459;83;27552;-80
2021/12/16 05:51:21;;;;;;;62.80;34.27;;;;;;;3.62;82.10;98412.17;1721361;83;25769;-80
2021/12/16 05:53:50;;;;;;;73.42;36.30;;;;;;;3.62;82.06;98417.52;1721514;83;25784;-79
2021/12/16 05:56:17;;;;;;;67.85;35.92;;;;;;;3.62;81.98;98420.70;1721419;83;25841;-80
2021/12/16 05:58:45;;;;;;;62.70;35.17;;;;;;;3.61;81.98;98427.03;1721526;83;26035;-80
2021/12/16 06:01:17;;;;;;;69.70;35.48;;;;;;;3.61;82.05;98426.54;1721486;83;27387;-80
2021/12/16 06:03:45;;;;;;;67.12;35.23;;;;;;;3.66;81.99;98426.09;1719604;83;25880;-80
2021/12/16 06:06:12;;;;;;;66.35;34.98;;;;;;;3.66;81.99;98426.09;1721503;83;25303;-80
2021/12/16 06:08:40;;;;;;;59.20;34.55;;;;;;;3.69;82.14;98427.15;1721395;83;25745;-80
2021/12/16 06:11:19;;;;;;;65.70;34.50;;;;;;;3.70;82.11;98427.50;1721488;83;25670;-80
2021/12/16 06:14:00;;;;;;;62.65;36.08;;;;;;;3.72;82.09;98429.54;1720957;83;27431;-79
2021/12/16 06:27:21;;;;;;;58.38;32.98;;;;;;;3.81;82.06;98438.02;1677958;85;28129;-79
2021/12/16 06:29:48;;;;;;;61.63;34.83;;;;;;;3.76;81.97;98432.74;1706968;83;25729;-79
2021/12/16 06:32:16;;;;;;;59.53;33.02;;;;;;;3.72;82.05;98432.20;1725979;82;25786;-80
2021/12/16 06:34:44;;;;;;;53.63;32.63;;;;;;;3.73;82.11;98440.58;1721423;83;25978;-79
2021/12/16 06:37:11;;;;;;;63.80;34.50;;;;;;;3.70;82.08;98447.53;1721386;83;25730;-80
2021/12/16 06:39:38;;;;;;;62.88;35.48;;;;;;;3.64;82.08;98449.41;1721209;83;27501;-79
2021/12/16 06:42:08;;;;;;;64.32;34.73;;;;;;;3.58;82.17;98444.17;1721247;83;25825;-80
2021/12/16 06:44:42;;;;;;;65.72;34.85;;;;;;;3.61;82.32;98443.05;1721356;83;25820;-79
2021/12/16 06:47:09;;;;;;;62.80;33.95;;;;;;;3.64;82.40;98445.41;1720661;83;25774;-79
2021/12/16 06:49:35;;;;;;;70.72;39.18;;;;;;;3.64;82.28;98446.75;1721031;83;25260;-79
2021/12/16 06:52:05;;;;;;;76.65;40.33;;;;;;;3.60;82.28;98449.38;1721650;83;27456;-80
2021/12/16 06:54:39;;;;;;;85.00;45.58;;;;;;;3.62;82.38;98452.75;1721383;83;25800;-79
2021/12/16 06:57:18;;;;;;;100.07;51.02;;;;;;;3.64;82.38;98458.76;1718857;83;25674;-80
2021/12/16 06:59:36;;;;;;;101.02;52.43;;;;;;;3.61;82.28;98461.73;1718546;83;26447;-80
2021/12/16 07:02:12;;;;;;;118.57;62.33;;;;;;;3.58;82.28;98460.68;1721020;83;25678;-80
2021/12/16 07:04:36;;;;;;;102.62;56.75;;;;;;;3.54;82.42;98465.45;1719850;83;27556;-79
2021/12/16 07:07:05;;;;;;;127.10;67.90;;;;;;;3.57;82.55;98456.32;1720658;83;25737;-80
2021/12/16 07:09:32;;;;;;;126.92;64.82;;;;;;;3.60;82.59;98460.05;1721655;83;25769;-80
2021/12/16 07:12:00;;;;;;;112.75;60.63;;;;;;;3.62;82.55;98458.90;1721645;83;25765;-80
2021/12/16 07:14:37;;;;;;;118.33;61.88;;;;;;;3.61;82.47;98457.24;1721593;83;25843;-81
2021/12/16 07:17:12;;;;;;;123.82;67.70;;;;;;;3.64;82.54;98458.76;1721541;83;26837;-79
2021/12/16 07:19:42;;;;;;;115.17;66.15;;;;;;;3.65;82.54;98452.44;1721426;83;25745;-79
2021/12/16 07:22:11;;;;;;;116.67;62.45;;;;;;;3.69;82.60;98466.36;1721660;83;25746;-79
2021/12/16 07:24:38;;;;;;;124.42;64.15;;;;;;;3.73;82.65;98461.94;1721199;83;25777;-80
2021/12/16 07:27:06;;;;;;;401.22;92.10;;;;;;;3.73;82.55;98459.75;1721541;83;25523;-80
2021/12/16 07:29:33;;;;;;;321.15;81.42;;;;;;;3.68;82.49;98453.98;1721660;83;28336;-80
2021/12/16 07:32:01;;;;;;;133.30;61.35;;;;;;;3.67;82.52;98454.97;1721434;83;25762;-79
2021/12/16 07:34:29;;;;;;;114.67;56.13;;;;;;;3.70;82.61;98456.88;1721509;83;25914;-79
2021/12/16 07:36:55;;;;;;;99.75;52.45;;;;;;;3.73;82.69;98455.27;1721343;83;25776;-79
2021/12/16 07:39:29;;;;;;;95.17;53.00;;;;;;;3.78;82.75;98452.98;1721548;83;26360;-79
2021/12/16 07:41:52;;;;;;;82.80;50.52;;;;;;;3.81;82.69;98453.20;1720608;83;27623;-79
2021/12/16 07:44:18;;;;;;;89.58;50.23;;;;;;;3.83;82.70;98452.08;1721423;83;25682;-79
2021/12/16 07:46:55;;;;;;;92.72;53.00;;;;;;;3.86;82.64;98451.80;1721481;83;25773;-79
2021/12/16 07:49:27;;;;;;;95.03;53.75;;;;;;;3.88;82.68;98454.30;1721607;83;25969;-79
2021/12/16 07:51:56;;;;;;;92.80;50.23;;;;;;;3.89;82.76;98448.81;1721696;83;25813;-79
2021/12/16 07:54:24;;;;;;;87.75;52.75;;;;;;;3.94;82.80;98450.57;1721547;83;28132;-79
2021/12/16 07:56:55;;;;;;;88.87;52.27;;;;;;;3.97;82.79;98444.95;1721532;83;25828;-79
2021/12/16 07:59:25;;;;;;;94.13;51.42;;;;;;;4.02;82.78;98442.31;1721576;83;25806;-80
2021/12/16 08:01:52;;;;;;;96.08;57.78;;;;;;;4.05;82.78;98454.05;1721619;83;26315;-79
2021/12/16 08:04:21;;;;;;;115.60;61.15;;;;;;;4.08;82.80;98451.09;1721541;83;25698;-79
2021/12/16 08:06:51;;;;;;;108.72;61.65;;;;;;;4.11;82.80;98445.44;1721585;83;27462;-79
2021/12/16 08:09:18;;;;;;;101.75;59.15;;;;;;;4.11;82.81;98453.45;1721313;83;26125;-79
2021/12/16 08:11:46;;;;;;;105.78;57.78;;;;;;;4.16;82.92;98448.53;1721498;83;25827;-79
2021/12/16 08:14:13;;;;;;;116.22;63.68;;;;;;;4.20;82.94;98449.94;1721520;83;25708;-79
2021/12/16 08:16:39;;;;;;;131.63;75.87;;;;;;;4.24;82.97;98449.48;1721605;83;25684;-79
2021/12/16 08:19:08;;;;;;;133.37;78.80;;;;;;;4.29;82.96;98446.37;1721605;83;27387;-80
2021/12/16 08:21:38;;;;;;;135.72;73.87;;;;;;;4.33;82.96;98443.77;1721484;83;25809;-79
2021/12/16 08:24:09;;;;;;;126.72;70.70;;;;;;;4.37;82.93;98435.78;1721371;83;25806;-80
2021/12/16 08:26:37;;;;;;;109.63;64.40;;;;;;;4.40;82.93;98431.48;1719097;83;25989;-80
2021/12/16 08:29:05;;;;;;;113.15;63.02;;;;;;;4.42;82.95;98430.01;1718312;83;25892;-79
2021/12/16 08:31:33;;;;;;;107.97;60.23;;;;;;;4.45;82.98;98427.05;1718485;83;27462;-79
2021/12/16 08:34:02;;;;;;;98.30;57.13;;;;;;;4.51;83.05;98427.28;1718331;83;25868;-79
2021/12/16 08:36:29;;;;;;;99.25;55.58;;;;;;;4.57;83.07;98431.20;1718493;83;25777;-79
2021/12/16 08:38:56;;;;;;;89.47;51.63;;;;;;;4.62;83.04;98430.25;1718438;83;25951;-80
2021/12/16 08:41:28;;;;;;;79.40;49.63;;;;;;;4.67;83.04;98433.33;1718483;83;25912;-80
2021/12/16 08:43:55;;;;;;;86.35;49.83;;;;;;;4.70;82.96;98438.39;1718147;83;27478;-79
2021/12/16 08:46:26;;;;;;;86.32;50.65;;;;;;;4.75;82.98;98441.93;1718338;83;25892;-80
2021/12/16 08:48:53;;;;;;;78.25;48.78;;;;;;;4.80;83.02;98443.67;1718454;83;25748;-79
2021/12/16 08:51:24;;;;;;;82.88;46.95;;;;;;;4.84;83.04;98441.02;1718379;83;26275;-80
2021/12/16 08:53:52;;;;;;;75.30;47.85;;;;;;;4.89;83.07;98442.77;1718443;83;25685;-80
2021/12/16 08:56:19;;;;;;;81.45;47.27;;;;;;;4.94;83.07;98440.00;1718439;83;27458;-80
2021/12/16 08:58:46;;;;;;;85.77;48.48;;;;;;;4.99;83.04;98436.85;1718316;83;25847;-79
2021/12/16 09:01:20;;;;;;;78.10;44.80;;;;;;;5.02;83.07;98439.23;1718073;83;26306;-80
2021/12/16 09:03:47;;;;;;;80.65;45.23;;;;;;;5.06;83.08;98433.94;1718069;83;25845;-80
2021/12/16 09:06:14;;;;;;;77.78;43.98;;;;;;;5.14;83.17;98432.67;1718288;83;25762;-80
2021/12/16 09:08:41;;;;;;;69.10;42.05;;;;;;;5.21;83.19;98427.03;1718320;83;28196;-80
2021/12/16 09:11:11;;;;;;;67.12;41.35;;;;;;;5.29;83.19;98431.15;1718334;83;25718;-81
2021/12/16 09:13:41;;;;;;;69.53;39.85;;;;;;;5.34;83.14;98426.16;1718392;83;25733;-80
2021/12/16 09:16:13;;;;;;;64.67;38.63;;;;;;;5.39;83.08;98431.91;1718381;83;25749;-80
2021/12/16 09:18:41;;;;;;;66.97;38.67;;;;;;;5.44;83.08;98428.75;1718687;83;25760;-79
2021/12/16 09:21:13;;;;;;;64.45;38.23;;;;;;;5.45;82.98;98426.41;1718404;83;27430;-80
2021/12/16 09:23:43;;;;;;;130.77;42.17;;;;;;;5.50;83.05;98428.64;1718344;83;25587;-80
2021/12/16 09:26:11;;;;;;;219.72;49.40;;;;;;;5.47;82.96;98424.92;1718312;83;25706;-80
2021/12/16 09:28:39;;;;;;;140.32;43.55;;;;;;;5.48;82.93;98420.76;1718374;83;25714;-80
2021/12/16 09:31:11;;;;;;;121.53;40.90;;;;;;;5.51;82.94;98418.27;1718490;83;25792;-80
2021/12/16 09:33:43;;;;;;;94.15;39.65;;;;;;;5.55;82.99;98419.66;1718435;83;28337;-80
2021/12/16 09:36:13;;;;;;;93.80;37.42;;;;;;;5.57;83.01;98412.28;1718310;83;25787;-80
2021/12/16 09:38:41;;;;;;;62.75;33.73;;;;;;;5.64;83.06;98406.66;1718362;83;25261;-79
2021/12/16 09:41:08;;;;;;;67.47;35.28;;;;;;;5.68;83.03;98398.64;1718310;83;26499;-80
2021/12/16 09:43:40;;;;;;;67.47;34.92;;;;;;;5.73;83.01;98398.52;1718283;83;25718;-81
2021/12/16 09:46:13;;;;;;;62.17;34.98;;;;;;;5.78;83.05;98388.69;1717101;83;46545;-80
2021/12/16 09:48:41;;;;;;;66.03;34.93;;;;;;;5.81;82.97;98393.71;1718243;83;25722;-83
2021/12/16 09:51:16;;;;;;;60.60;35.60;;;;;;;5.85;83.00;98389.73;1718381;83;25757;-81
2021/12/16 09:53:40;;;;;;;68.12;35.65;;;;;;;5.95;82.98;98387.81;1717921;83;25852;-81
2021/12/16 09:56:09;;;;;;;66.15;39.75;;;;;;;6.02;82.98;98376.81;1718381;83;25569;-81
2021/12/16 09:58:41;;;;;;;75.08;41.70;;;;;;;6.08;82.84;98390.06;1718249;83;27383;-81
2021/12/16 10:01:09;;;;;;;85.80;45.10;;;;;;;6.12;82.81;98386.92;1718455;83;25806;-81
2021/12/16 10:03:41;;;;;;;126.10;60.35;;;;;;;6.19;82.75;98378.22;1718204;83;25737;-80
2021/12/16 10:06:09;;;;;;;130.72;62.13;;;;;;;6.23;82.64;98384.45;1718377;83;25797;-81
2021/12/16 10:08:36;;;;;;;122.30;62.50;;;;;;;6.25;82.52;98381.61;1718204;83;25798;-80
2021/12/16 10:11:05;;;;;;;108.65;57.62;;;;;;;6.24;82.47;98382.61;1718081;83;28048;-80
2021/12/16 10:13:47;;;;;;;68.85;38.28;;;;;;;6.27;82.47;98386.32;1718194;83;25815;-80
2021/12/16 10:18:38;;;;;;;23.00;15.72;;;;;;;6.32;82.25;98378.62;1718211;82;25689;-80
2021/12/16 10:21:08;;;;;;;27.93;17.62;;;;;;;6.36;81.98;98373.28;1717927;83;25714;-80
2021/12/16 10:23:40;;;;;;;18.95;12.10;;;;;;;6.41;81.75;98369.59;1717923;83;27432;-81
2021/12/16 10:26:12;;;;;;;18.40;12.28;;;;;;;6.41;81.51;98357.03;1719052;82;25833;-81
2021/12/16 10:28:43;;;;;;;18.75;12.45;;;;;;;6.41;81.16;98356.19;1698844;83;32922;-80
2021/12/16 10:31:20;;;;;;;25.23;11.25;;;;;;;6.44;80.95;98355.88;1699783;84;25719;-81
2021/12/16 10:34:01;;;;;;;20.37;12.75;;;;;;;6.45;80.72;98341.46;1703840;83;25623;-81
2021/12/16 10:36:36;;;;;;;17.65;12.40;;;;;;;6.49;80.68;98340.14;1703658;83;28428;-80
2021/12/16 10:39:13;;;;;;;21.50;14.73;;;;;;;6.55;80.60;98332.77;1699583;83;25856;-80
2021/12/16 10:41:46;;;;;;;24.37;16.12;;;;;;;6.58;80.50;98333.80;1703865;83;25766;-81
2021/12/16 10:44:23;;;;;;;19.35;12.95;;;;;;;6.63;80.39;98341.36;1699688;83;25747;-80
2021/12/16 10:47:00;;;;;;;20.80;13.28;;;;;;;6.68;80.25;98339.85;1699386;84;26653;-80
2021/12/16 10:49:27;;;;;;;22.67;13.80;;;;;;;6.75;80.11;98339.55;1699265;83;28163;-80
2021/12/16 10:51:59;;;;;;;20.27;13.25;;;;;;;6.86;79.97;98339.23;1695590;83;25825;-81
2021/12/16 10:54:34;;;;;;;19.50;11.37;;;;;;;6.97;79.91;98336.73;1699845;83;25671;-81
2021/12/16 10:57:22;;;;;;;17.62;10.60;;;;;;;7.10;79.76;98334.89;1699697;83;26314;-81
2021/12/16 11:00:01;;;;;;;18.52;11.38;;;;;;;7.20;79.56;98339.59;1699413;83;25664;-81
2021/12/16 11:02:35;;;;;;;17.92;11.15;;;;;;;7.22;79.11;98329.03;1699769;83;27368;-81
2021/12/16 11:05:19;;;;;;;17.35;10.85;;;;;;;7.21;78.86;98338.09;1699607;83;25716;-81
2021/12/16 11:07:55;;;;;;;17.80;11.18;;;;;;;7.17;78.79;98336.73;1701174;83;25789;-80
2021/12/16 11:10:36;;;;;;;17.57;10.63;;;;;;;7.08;78.51;98340.42;1699724;83;26352;-81
2021/12/16 11:13:10;;;;;;;22.22;13.35;;;;;;;7.06;78.42;98346.45;1703649;83;25792;-81
2021/12/16 11:15:52;;;;;;;20.17;12.05;;;;;;;7.07;78.38;98343.27;1711147;83;27405;-81
2021/12/16 11:18:22;;;;;;;20.57;13.60;;;;;;;7.03;78.24;98345.44;1706862;83;25670;-81
2021/12/16 11:21:00;;;;;;;20.27;14.00;;;;;;;7.01;78.06;98345.27;1699664;83;25301;-81
2021/12/16 11:23:40;;;;;;;21.52;13.35;;;;;;;6.97;78.00;98341.25;1699680;83;25754;-81
2021/12/16 11:26:17;;;;;;;23.22;15.10;;;;;;;6.93;77.91;98343.92;1700191;83;25806;-81
2021/12/16 11:28:46;;;;;;;21.00;13.83;;;;;;;6.90;77.89;98345.59;1718283;83;28108;-81
2021/12/16 11:31:27;;;;;;;19.80;13.25;;;;;;;6.90;77.88;98349.61;1718396;83;25803;-81
2021/12/16 11:33:59;;;;;;;20.95;13.43;;;;;;;6.88;77.82;98343.91;1718399;83;26505;-80
2021/12/16 11:36:33;;;;;;;19.73;13.30;;;;;;;6.87;77.71;98349.47;1719895;82;26402;-80
2021/12/16 11:39:08;;;;;;;22.40;14.38;;;;;;;6.84;77.71;98351.13;1720296;82;26447;-80
2021/12/16 11:42:00;;;;;;;21.00;14.75;;;;;;;6.83;77.68;98344.08;1712409;83;27446;-80
2021/12/16 11:44:37;;;;;;;23.55;14.80;;;;;;;6.78;77.67;98348.59;1718188;83;25814;-80
2021/12/16 11:47:19;;;;;;;23.12;14.47;;;;;;;6.76;77.70;98347.91;1718419;83;25757;-81
2021/12/16 11:49:54;;;;;;;24.60;16.07;;;;;;;6.72;77.75;98338.53;1718533;83;25866;-81
2021/12/16 11:52:35;;;;;;;26.68;16.82;;;;;;;6.72;77.86;98338.53;1718485;83;25769;-81
2021/12/16 11:55:12;;;;;;;26.68;16.17;;;;;;;6.74;77.93;98339.21;1718662;83;28069;-81
2021/12/16 11:57:51;;;;;;;25.12;16.45;;;;;;;6.71;77.89;98334.16;1718300;83;26383;-81
2021/12/16 12:00:34;;;;;;;26.45;16.48;;;;;;;6.70;77.91;98330.30;1718283;83;25769;-81
2021/12/16 12:03:07;;;;;;;24.65;18.23;;;;;;;6.67;77.98;98335.98;1718373;83;25798;-81
2021/12/16 12:05:45;;;;;;;25.90;17.65;;;;;;;6.69;78.07;98338.01;1718333;83;25706;-81
2021/12/16 12:08:28;;;;;;;30.45;17.80;;;;;;;6.70;78.13;98339.19;1718506;83;28144;-81
2021/12/16 12:11:05;;;;;;;40.55;25.08;;;;;;;6.69;78.17;98340.69;1718233;83;25718;-81
2021/12/16 12:13:41;;;;;;;35.08;22.98;;;;;;;6.72;78.27;98341.21;1718238;83;25754;-80
2021/12/16 12:16:15;;;;;;;37.33;23.38;;;;;;;6.76;78.27;98339.05;1717958;83;26601;-81
2021/12/16 12:18:57;;;;;;;34.35;22.22;;;;;;;6.77;78.24;98339.36;1717949;83;25743;-81
2021/12/16 12:21:58;;;;;;;41.70;25.23;;;;;;;6.75;78.26;98334.19;1718511;83;28301;-81
2021/12/16 12:24:37;;;;;;;48.40;26.15;;;;;;;6.77;78.30;98336.17;1718035;83;25926;-81
2021/12/16 12:27:17;;;;;;;43.58;26.77;;;;;;;6.79;78.42;98346.25;1719092;82;25773;-80
2021/12/16 12:29:52;;;;;;;46.08;26.23;;;;;;;6.78;78.45;98348.59;1721481;83;25718;-81
2021/12/16 12:32:29;;;;;;;56.55;29.82;;;;;;;6.78;78.45;98354.45;1721570;83;25785;-81
2021/12/16 12:35:07;;;;;;;49.00;27.13;;;;;;;6.69;78.34;98359.47;1721474;83;27428;-81
2021/12/16 12:37:38;;;;;;;54.58;30.10;;;;;;;6.67;78.44;98354.27;1721202;83;25766;-80
2021/12/16 12:40:16;;;;;;;63.75;35.20;;;;;;;6.68;78.49;98355.11;1721486;83;25686;-81
2021/12/16 12:42:46;;;;;;;66.30;36.53;;;;;;;6.67;78.50;98342.20;1721513;83;25725;-81
2021/12/16 12:45:16;;;;;;;108.10;54.53;;;;;;;6.69;78.60;98355.45;1721361;83;25728;-82
2021/12/16 12:47:47;;;;;;;119.20;59.23;;;;;;;6.71;78.61;98344.05;1732863;82;27463;-81
2021/12/16 12:50:22;;;;;;;78.37;36.40;;;;;;;6.70;78.56;98345.90;1721123;83;26486;-82
2021/12/16 12:52:52;;;;;;;64.20;33.08;;;;;;;6.65;78.52;98341.52;1726960;82;25809;-81
2021/12/16 12:55:32;;;;;;;56.02;30.70;;;;;;;6.61;78.58;98344.70;1725396;82;25760;-82
2021/12/16 12:58:13;;;;;;;41.77;26.60;;;;;;;6.53;78.60;98347.34;1721482;83;25560;-81
2021/12/16 13:00:50;;;;;;;61.23;34.85;;;;;;;6.44;78.72;98341.96;1721505;83;27429;-81
2021/12/16 13:03:37;;;;;;;48.42;29.70;;;;;;;6.42;78.95;98336.42;1721357;83;26570;-81
2021/12/16 13:06:09;;;;;;;42.48;27.75;;;;;;;6.40;78.96;98333.89;1692212;84;25865;-81
2021/12/16 13:08:41;;;;;;;33.13;22.93;;;;;;;6.36;79.15;98335.73;1681817;84;26014;-81
2021/12/16 13:11:13;;;;;;;35.25;24.72;;;;;;;6.35;79.29;98340.77;1678096;85;25780;-81
2021/12/16 13:14:14;;;;;;;47.20;32.95;;;;;;;6.36;79.34;98342.45;1678047;85;28218;-80
2021/12/16 13:17:00;;;;;;;47.03;30.12;;;;;;;6.30;79.33;98335.88;1676707;84;25816;-81
2021/12/16 13:26:26;;;;;;;73.05;43.08;;;;;;;6.26;79.63;98345.27;1677745;85;25839;-81
2021/12/16 13:28:18;;;;;;;75.30;44.48;;;;;;;6.23;79.72;98342.89;1684144;84;27411;-81
2021/12/16 13:30:51;;;;;;;61.50;38.35;;;;;;;6.23;79.75;98331.33;1729037;81;25840;-80
2021/12/16 13:33:20;;;;;;;49.23;30.95;;;;;;;6.21;79.78;98333.33;1726565;82;25735;-80
2021/12/16 13:35:49;;;;;;;48.98;29.15;;;;;;;6.23;79.87;98340.22;1696984;84;25760;-81
2021/12/16 13:38:20;;;;;;;48.78;31.82;;;;;;;6.20;79.89;98337.00;1727948;83;25928;-80
2021/12/16 13:40:49;;;;;;;48.58;30.32;;;;;;;6.14;79.92;98333.98;1728151;82;28201;-81
2021/12/16 13:43:24;;;;;;;51.80;31.55;;;;;;;6.17;80.03;98331.45;1727728;82;25781;-82
2021/12/16 13:46:25;;;;;;;48.63;30.37;;;;;;;6.14;80.05;98328.62;1697516;84;25834;-82
2021/12/16 14:05:27;;;;;;;48.23;29.15;;;;;;;5.95;80.43;98363.69;1727012;83;25911;-81
2021/12/16 14:08:04;;;;;;;46.33;28.23;;;;;;;5.92;80.55;98372.53;1727013;82;27482;-81
2021/12/16 14:10:51;;;;;;;63.25;35.75;;;;;;;5.93;80.69;98368.36;1726454;82;26101;-81
2021/12/16 14:16:37;;;;;;;82.60;44.00;;;;;;;6.00;80.87;98361.38;1727044;82;26347;-82
2021/12/16 14:25:13;;;;;;;43.92;27.58;;;;;;;6.02;80.82;98337.11;1726801;83;25311;-81
2021/12/16 14:31:10;;;;;;;44.75;28.07;;;;;;;6.04;80.92;98335.92;1699475;83;25845;-81